createdAt,value
2019-04-29T01:27:43.888Z,1019.6
2019-04-29T01:38:28.790Z,1019.6
2019-04-29T01:48:45.590Z,1019.7
2019-04-29T01:59:32.589Z,1019.7
2019-04-29T02:09:46.400Z,1019.7
2019-04-29T02:20:02.665Z,1019.9
2019-04-29T02:30:16.735Z,1019.8
2019-04-29T02:40:30.063Z,1019.9
2019-04-29T02:50:43.038Z,1019.9
2019-04-29T03:01:17.963Z,1020.0
2019-04-29T03:11:35.328Z,1019.9
2019-04-29T03:21:48.386Z,1019.8
2019-04-29T07:56:51.688Z,1021.3
2019-04-29T08:10:32.377Z,1021.3
2019-04-29T08:23:55.781Z,1021.0
2019-04-29T08:38:48.994Z,1020.7
2019-04-29T08:49:05.874Z,1020.6
2019-04-29T09:01:14.066Z,1020.6
2019-04-29T09:13:10.191Z,1020.7
2019-04-29T09:25:38.911Z,1020.6
2019-04-29T09:37:13.884Z,1020.8
2019-04-29T09:48:39.570Z,1020.8
2019-04-29T09:59:45.733Z,1020.7
2019-04-29T10:10:02.096Z,1020.4
2019-04-29T10:21:21.727Z,1020.3
2019-04-29T10:31:32.864Z,1020.1
2019-04-29T10:41:44.444Z,1019.8
2019-04-29T10:52:34.368Z,1019.8
2019-04-29T11:02:48.832Z,1019.9
2019-04-29T11:18:34.195Z,1019.8
2019-04-29T11:33:59.596Z,1019.8
2019-04-29T11:44:14.647Z,1019.7
2019-04-29T11:54:28.559Z,1019.6
2019-04-29T12:05:14.812Z,1019.7
2019-04-29T12:15:28.458Z,1019.6
2019-04-29T12:53:47.663Z,1019.4
2019-04-29T13:04:32.908Z,1019.1
2019-04-29T13:15:36.440Z,1018.9
2019-04-29T14:09:05.561Z,1018.7
2019-04-29T14:19:39.793Z,1018.6
2019-04-29T14:29:40.029Z,1018.7
2019-04-29T14:39:54.495Z,1018.7
2019-04-29T14:50:10.687Z,1018.8
2019-04-29T15:00:21.329Z,1018.7
2019-04-29T15:10:36.716Z,1018.6
2019-04-29T15:20:46.471Z,1018.6
2019-04-29T17:09:14.463Z,1019.1
2019-04-29T17:52:32.577Z,1019.2
2019-04-29T18:08:39.533Z,1019.2
2019-04-29T18:49:07.608Z,1019.3
2019-04-29T19:28:45.195Z,1019.6
2019-04-29T19:40:42.636Z,1019.6
2019-04-29T19:51:13.438Z,1019.7
2019-04-29T20:01:13.396Z,1019.7
2019-04-29T20:14:36.706Z,1019.8
2019-04-29T20:25:37.667Z,1019.8
2019-04-29T20:40:01.026Z,1019.8
2019-04-29T20:51:48.897Z,1019.8
2019-04-29T21:01:49.159Z,1019.8
2019-04-29T21:12:00.723Z,1019.7
2019-04-29T21:22:20.392Z,1019.7
2019-04-29T21:32:25.840Z,1019.7
2019-04-29T21:42:39.869Z,1019.7
2019-04-29T21:52:55.379Z,1019.8
2019-04-29T22:03:28.724Z,1019.8
2019-04-29T22:14:27.108Z,1019.7
2019-04-29T22:24:39.146Z,1019.6
2019-04-29T22:35:50.066Z,1019.7
2019-04-29T22:46:08.900Z,1019.7
2019-04-29T22:58:11.864Z,1019.8
2019-04-29T23:09:41.668Z,1019.9
2019-04-29T23:19:52.707Z,1019.7
2019-04-29T23:31:16.530Z,1019.6
2019-04-29T23:41:32.987Z,1019.7
